sensor_id;sensor_type;location;lat;lon;timestamp;pressure;altitude;pressure_sealevel;temperature;humidity
77975;BME280;67164;51.202;0.278;2023-04-01T00:00:22;99452.10;;;23.56;39.30
77975;BME280;67164;51.202;0.278;2023-04-01T00:02:48;99452.66;;;23.58;39.28
77975;BME280;67164;51.202;0.278;2023-04-01T00:05:14;99453.13;;;23.79;39.25
77975;BME280;67164;51.202;0.278;2023-04-01T00:07:40;99455.67;;;24.01;39.21
77975;BME280;67164;51.202;0.278;2023-04-01T00:10:07;99460.46;;;24.00;39.19
77975;BME280;67164;51.202;0.278;2023-04-01T00:12:31;99462.25;;;23.72;39.19
77975;BME280;67164;51.202;0.278;2023-04-01T00:14:57;99466.00;;;23.94;39.22
77975;BME280;67164;51.202;0.278;2023-04-01T00:17:23;99467.78;;;23.69;39.24
77975;BME280;67164;51.202;0.278;2023-04-01T00:19:49;99470.32;;;23.42;39.27
77975;BME280;67164;51.202;0.278;2023-04-01T00:22:14;99469.65;;;23.44;39.22
77975;BME280;67164;51.202;0.278;2023-04-01T00:24:40;99476.22;;;23.38;39.26
77975;BME280;67164;51.202;0.278;2023-04-01T00:27:06;99478.66;;;23.82;39.25
77975;BME280;67164;51.202;0.278;2023-04-01T00:29:32;99479.06;;;23.80;39.27
77975;BME280;67164;51.202;0.278;2023-04-01T00:31:58;99487.39;;;23.54;39.28
77975;BME280;67164;51.202;0.278;2023-04-01T00:34:24;99485.35;;;23.73;39.32
77975;BME280;67164;51.202;0.278;2023-04-01T00:36:50;99487.77;;;23.46;39.31
77975;BME280;67164;51.202;0.278;2023-04-01T00:39:15;99489.58;;;23.73;39.28
77975;BME280;67164;51.202;0.278;2023-04-01T00:41:41;99496.88;;;23.24;39.25
77975;BME280;67164;51.202;0.278;2023-04-01T00:44:16;99499.88;;;23.72;39.24
77975;BME280;67164;51.202;0.278;2023-04-01T00:46:32;99500.91;;;23.51;39.15
77975;BME280;67164;51.202;0.278;2023-04-01T00:48:58;99506.25;;;23.72;39.18
77975;BME280;67164;51.202;0.278;2023-04-01T00:51:27;99504.47;;;23.66;39.24
77975;BME280;67164;51.202;0.278;2023-04-01T00:53:52;99507.69;;;23.38;39.24
77975;BME280;67164;51.202;0.278;2023-04-01T00:56:18;99508.93;;;23.56;39.32
77975;BME280;67164;51.202;0.278;2023-04-01T00:58:46;99516.90;;;23.09;39.28
77975;BME280;67164;51.202;0.278;2023-04-01T01:01:08;99520.72;;;23.31;39.28
77975;BME280;67164;51.202;0.278;2023-04-01T01:03:33;99522.53;;;23.58;39.26
77975;BME280;67164;51.202;0.278;2023-04-01T01:06:08;99523.70;;;23.48;39.26
77975;BME280;67164;51.202;0.278;2023-04-01T01:08:32;99528.54;;;23.51;39.31
77975;BME280;67164;51.202;0.278;2023-04-01T01:10:51;99531.08;;;23.46;39.30
77975;BME280;67164;51.202;0.278;2023-04-01T01:13:19;99532.11;;;23.44;39.35
77975;BME280;67164;51.202;0.278;2023-04-01T01:15:46;99531.19;;;23.21;39.30
77975;BME280;67164;51.202;0.278;2023-04-01T01:18:14;99534.44;;;23.40;39.41
77975;BME280;67164;51.202;0.278;2023-04-01T01:20:52;99535.15;;;23.39;39.40
77975;BME280;67164;51.202;0.278;2023-04-01T01:25:34;99540.42;;;23.39;39.26
77975;BME280;67164;51.202;0.278;2023-04-01T01:27:58;99543.76;;;23.39;39.30
77975;BME280;67164;51.202;0.278;2023-04-01T01:30:29;99548.76;;;23.16;39.34
77975;BME280;67164;51.202;0.278;2023-04-01T01:32:55;99550.19;;;23.36;39.34
77975;BME280;67164;51.202;0.278;2023-04-01T01:35:16;99553.05;;;23.37;39.33
77975;BME280;67164;51.202;0.278;2023-04-01T01:37:35;99552.66;;;23.41;39.33
77975;BME280;67164;51.202;0.278;2023-04-01T01:40:04;99559.31;;;23.37;39.29
77975;BME280;67164;51.202;0.278;2023-04-01T01:42:27;99564.34;;;23.42;39.23
77975;BME280;67164;51.202;0.278;2023-04-01T01:44:53;99564.33;;;23.17;39.23
77975;BME280;67164;51.202;0.278;2023-04-01T01:47:19;99565.28;;;23.37;39.24
77975;BME280;67164;51.202;0.278;2023-04-01T01:49:44;99569.55;;;22.91;39.41
77975;BME280;67164;51.202;0.278;2023-04-01T01:52:10;99574.04;;;23.28;39.50
77975;BME280;67164;51.202;0.278;2023-04-01T01:54:35;99576.99;;;23.17;39.46
77975;BME280;67164;51.202;0.278;2023-04-01T01:57:05;99580.51;;;23.18;39.53
77975;BME280;67164;51.202;0.278;2023-04-01T01:59:28;99582.17;;;23.39;39.55
77975;BME280;67164;51.202;0.278;2023-04-01T02:01:55;99583.80;;;23.11;39.60
77975;BME280;67164;51.202;0.278;2023-04-01T02:04:19;99591.18;;;23.07;39.67
77975;BME280;67164;51.202;0.278;2023-04-01T02:06:48;99591.67;;;23.29;39.76
77975;BME280;67164;51.202;0.278;2023-04-01T02:09:11;99593.90;;;23.08;39.72
77975;BME280;67164;51.202;0.278;2023-04-01T02:11:38;99597.82;;;23.06;39.67
77975;BME280;67164;51.202;0.278;2023-04-01T02:14:05;99600.25;;;23.09;39.64
77975;BME280;67164;51.202;0.278;2023-04-01T02:16:31;99599.46;;;23.32;39.70
77975;BME280;67164;51.202;0.278;2023-04-01T02:18:54;99605.46;;;23.05;39.70
77975;BME280;67164;51.202;0.278;2023-04-01T02:21:20;99607.75;;;22.99;39.74
77975;BME280;67164;51.202;0.278;2023-04-01T02:23:45;99612.09;;;22.99;39.73
77975;BME280;67164;51.202;0.278;2023-04-01T02:26:11;99617.94;;;23.24;39.77
77975;BME280;67164;51.202;0.278;2023-04-01T02:28:38;99620.74;;;23.19;39.77
77975;BME280;67164;51.202;0.278;2023-04-01T02:31:03;99624.80;;;23.23;39.80
77975;BME280;67164;51.202;0.278;2023-04-01T02:33:29;99631.07;;;22.96;39.67
77975;BME280;67164;51.202;0.278;2023-04-01T02:35:54;99635.89;;;23.18;39.74
77975;BME280;67164;51.202;0.278;2023-04-01T02:38:20;99636.24;;;22.91;39.78
77975;BME280;67164;51.202;0.278;2023-04-01T02:40:47;99638.34;;;22.88;39.85
77975;BME280;67164;51.202;0.278;2023-04-01T02:43:12;99640.13;;;22.98;39.81
77975;BME280;67164;51.202;0.278;2023-04-01T02:45:37;99641.78;;;22.96;39.77
77975;BME280;67164;51.202;0.278;2023-04-01T02:48:04;99641.77;;;22.89;39.88
77975;BME280;67164;51.202;0.278;2023-04-01T02:50:29;99648.63;;;23.13;39.89
77975;BME280;67164;51.202;0.278;2023-04-01T02:52:55;99653.57;;;22.90;39.85
77975;BME280;67164;51.202;0.278;2023-04-01T02:55:21;99652.66;;;23.12;39.81
77975;BME280;67164;51.202;0.278;2023-04-01T02:57:46;99658.79;;;23.17;39.75
77975;BME280;67164;51.202;0.278;2023-04-01T03:00:14;99662.32;;;23.15;39.78
77975;BME280;67164;51.202;0.278;2023-04-01T03:02:39;99662.21;;;23.09;39.75
77975;BME280;67164;51.202;0.278;2023-04-01T03:05:05;99664.58;;;22.82;39.91
77975;BME280;67164;51.202;0.278;2023-04-01T03:07:30;99664.68;;;23.09;39.84
77975;BME280;67164;51.202;0.278;2023-04-01T03:09:55;99676.49;;;22.88;39.73
77975;BME280;67164;51.202;0.278;2023-04-01T03:12:21;99677.74;;;23.05;39.81
77975;BME280;67164;51.202;0.278;2023-04-01T03:14:47;99679.70;;;22.84;39.64
77975;BME280;67164;51.202;0.278;2023-04-01T03:17:13;99683.19;;;23.28;39.67
77975;BME280;67164;51.202;0.278;2023-04-01T03:19:39;99686.16;;;23.10;39.60
77975;BME280;67164;51.202;0.278;2023-04-01T03:22:05;99689.29;;;22.82;39.66
77975;BME280;67164;51.202;0.278;2023-04-01T03:24:30;99692.09;;;23.26;39.59
77975;BME280;67164;51.202;0.278;2023-04-01T03:26:56;99693.11;;;22.79;39.64
77975;BME280;67164;51.202;0.278;2023-04-01T03:29:22;99697.28;;;22.98;39.58
77975;BME280;67164;51.202;0.278;2023-04-01T03:31:48;99702.15;;;22.96;39.68
77975;BME280;67164;51.202;0.278;2023-04-01T03:34:14;99704.19;;;22.98;39.56
77975;BME280;67164;51.202;0.278;2023-04-01T03:36:40;99704.91;;;22.94;39.60
77975;BME280;67164;51.202;0.278;2023-04-01T03:39:05;99708.74;;;22.74;39.54
77975;BME280;67164;51.202;0.278;2023-04-01T03:41:32;99710.57;;;22.99;39.50
77975;BME280;67164;51.202;0.278;2023-04-01T03:43:57;99712.28;;;22.74;39.53
77975;BME280;67164;51.202;0.278;2023-04-01T03:46:23;99713.97;;;22.74;39.46
77975;BME280;67164;51.202;0.278;2023-04-01T03:48:49;99714.17;;;22.95;39.47
77975;BME280;67164;51.202;0.278;2023-04-01T03:51:14;99720.97;;;22.70;39.49
77975;BME280;67164;51.202;0.278;2023-04-01T03:53:41;99721.50;;;22.89;39.50
77975;BME280;67164;51.202;0.278;2023-04-01T03:56:07;99722.69;;;22.89;39.53
77975;BME280;67164;51.202;0.278;2023-04-01T03:58:32;99725.82;;;22.87;39.54
77975;BME280;67164;51.202;0.278;2023-04-01T04:00:58;99726.81;;;22.86;39.52
77975;BME280;67164;51.202;0.278;2023-04-01T04:03:24;99730.72;;;22.84;39.50
77975;BME280;67164;51.202;0.278;2023-04-01T04:05:49;99730.81;;;23.17;39.37
77975;BME280;67164;51.202;0.278;2023-04-01T04:08:15;99731.23;;;23.20;39.31
77975;BME280;67164;51.202;0.278;2023-04-01T04:10:41;99733.87;;;22.75;39.29
77975;BME280;67164;51.202;0.278;2023-04-01T04:13:07;99734.46;;;22.75;39.20
77975;BME280;67164;51.202;0.278;2023-04-01T04:15:33;99736.42;;;22.96;39.30
77975;BME280;67164;51.202;0.278;2023-04-01T04:17:58;99738.79;;;22.68;39.28
77975;BME280;67164;51.202;0.278;2023-04-01T04:20:24;99740.95;;;22.83;39.32
77975;BME280;67164;51.202;0.278;2023-04-01T04:22:50;99742.15;;;22.57;39.35
77975;BME280;67164;51.202;0.278;2023-04-01T04:25:16;99745.98;;;22.55;39.37
77975;BME280;67164;51.202;0.278;2023-04-01T04:27:42;99750.61;;;22.57;39.30
77975;BME280;67164;51.202;0.278;2023-04-01T04:30:08;99756.20;;;22.78;39.33
77975;BME280;67164;51.202;0.278;2023-04-01T04:32:33;99759.84;;;22.73;39.38
77975;BME280;67164;51.202;0.278;2023-04-01T04:34:59;99762.26;;;22.72;39.40
77975;BME280;67164;51.202;0.278;2023-04-01T04:37:26;99763.77;;;22.92;39.40
77975;BME280;67164;51.202;0.278;2023-04-01T04:39:51;99767.31;;;22.48;39.35
77975;BME280;67164;51.202;0.278;2023-04-01T04:42:17;99769.43;;;22.93;39.34
77975;BME280;67164;51.202;0.278;2023-04-01T04:44:42;99770.84;;;22.44;39.36
77975;BME280;67164;51.202;0.278;2023-04-01T04:47:08;99775.64;;;22.67;39.29
77975;BME280;67164;51.202;0.278;2023-04-01T04:49:34;99777.62;;;22.89;39.40
77975;BME280;67164;51.202;0.278;2023-04-01T04:52:00;99777.05;;;22.84;39.42
77975;BME280;67164;51.202;0.278;2023-04-01T04:54:26;99779.31;;;22.81;39.45
77975;BME280;67164;51.202;0.278;2023-04-01T04:56:52;99781.71;;;22.55;39.42
77975;BME280;67164;51.202;0.278;2023-04-01T04:59:17;99784.55;;;22.78;39.43
77975;BME280;67164;51.202;0.278;2023-04-01T05:01:43;99785.58;;;22.31;39.43
77975;BME280;67164;51.202;0.278;2023-04-01T05:04:09;99790.36;;;22.53;39.44
77975;BME280;67164;51.202;0.278;2023-04-01T05:06:35;99793.56;;;22.48;39.45
77975;BME280;67164;51.202;0.278;2023-04-01T05:09:00;99796.81;;;22.72;39.43
77975;BME280;67164;51.202;0.278;2023-04-01T05:11:26;99802.17;;;22.73;39.38
77975;BME280;67164;51.202;0.278;2023-04-01T05:13:52;99807.23;;;22.73;39.40
77975;BME280;67164;51.202;0.278;2023-04-01T05:16:20;99810.42;;;22.74;39.38
77975;BME280;67164;51.202;0.278;2023-04-01T05:18:44;99814.51;;;22.81;39.33
77975;BME280;67164;51.202;0.278;2023-04-01T05:21:12;99820.44;;;22.83;39.24
77975;BME280;67164;51.202;0.278;2023-04-01T05:23:36;99821.79;;;22.61;39.19
77975;BME280;67164;51.202;0.278;2023-04-01T05:26:03;99823.90;;;22.63;39.23
77975;BME280;67164;51.202;0.278;2023-04-01T05:28:27;99825.56;;;22.76;39.29
77975;BME280;67164;51.202;0.278;2023-04-01T05:30:53;99828.43;;;22.68;39.35
77975;BME280;67164;51.202;0.278;2023-04-01T05:33:19;99828.80;;;22.39;39.40
77975;BME280;67164;51.202;0.278;2023-04-01T05:35:45;99826.12;;;22.28;39.50
77975;BME280;67164;51.202;0.278;2023-04-01T05:38:10;99832.89;;;22.30;39.65
77975;BME280;67164;51.202;0.278;2023-04-01T05:40:36;99834.57;;;22.54;39.57
77975;BME280;67164;51.202;0.278;2023-04-01T05:43:02;99833.63;;;22.33;39.67
77975;BME280;67164;51.202;0.278;2023-04-01T05:45:28;99834.03;;;22.41;39.46
77975;BME280;67164;51.202;0.278;2023-04-01T05:47:54;99834.30;;;22.68;39.44
77975;BME280;67164;51.202;0.278;2023-04-01T05:50:20;99842.53;;;22.28;39.70
77975;BME280;67164;51.202;0.278;2023-04-01T05:52:45;99843.64;;;21.99;40.20
77975;BME280;67164;51.202;0.278;2023-04-01T05:55:11;99848.33;;;21.94;40.42
77975;BME280;67164;51.202;0.278;2023-04-01T05:57:37;99852.06;;;21.88;40.88
77975;BME280;67164;51.202;0.278;2023-04-01T06:00:04;99855.37;;;21.52;41.33
77975;BME280;67164;51.202;0.278;2023-04-01T06:02:29;99856.35;;;22.02;41.43
77975;BME280;67164;51.202;0.278;2023-04-01T06:05:02;99861.13;;;21.61;41.91
77975;BME280;67164;51.202;0.278;2023-04-01T06:07:20;99858.42;;;21.85;42.05
77975;BME280;67164;51.202;0.278;2023-04-01T06:09:46;99861.41;;;21.35;42.20
77975;BME280;67164;51.202;0.278;2023-04-01T06:12:23;99866.20;;;21.41;42.19
77975;BME280;67164;51.202;0.278;2023-04-01T06:14:43;99869.39;;;21.95;42.17
77975;BME280;67164;51.202;0.278;2023-04-01T06:17:17;99873.15;;;21.57;42.09
77975;BME280;67164;51.202;0.278;2023-04-01T06:19:36;99874.43;;;21.69;42.42
77975;BME280;67164;51.202;0.278;2023-04-01T06:22:10;99876.62;;;21.92;42.05
77975;BME280;67164;51.202;0.278;2023-04-01T06:24:38;99876.71;;;21.73;41.99
77975;BME280;67164;51.202;0.278;2023-04-01T06:26:50;99878.59;;;21.74;42.00
77975;BME280;67164;51.202;0.278;2023-04-01T06:29:30;99882.85;;;21.93;42.13
77975;BME280;67164;51.202;0.278;2023-04-01T06:31:48;99885.21;;;22.18;42.37
77975;BME280;67164;51.202;0.278;2023-04-01T06:34:17;99889.69;;;21.97;42.44
77975;BME280;67164;51.202;0.278;2023-04-01T06:36:43;99890.79;;;22.26;42.39
77975;BME280;67164;51.202;0.278;2023-04-01T06:39:04;99894.58;;;22.30;42.33
77975;BME280;67164;51.202;0.278;2023-04-01T06:41:38;99902.35;;;22.20;42.18
77975;BME280;67164;51.202;0.278;2023-04-01T06:43:55;99906.15;;;21.82;42.41
77975;BME280;67164;51.202;0.278;2023-04-01T06:46:19;99908.28;;;21.88;42.69
77975;BME280;67164;51.202;0.278;2023-04-01T06:48:50;99910.15;;;21.93;43.01
77975;BME280;67164;51.202;0.278;2023-04-01T06:51:14;99914.18;;;21.90;43.13
77975;BME280;67164;51.202;0.278;2023-04-01T06:53:35;99916.12;;;21.86;43.04
77975;BME280;67164;51.202;0.278;2023-04-01T06:56:00;99919.27;;;22.01;42.83
77975;BME280;67164;51.202;0.278;2023-04-01T06:58:24;99920.71;;;22.05;42.71
77975;BME280;67164;51.202;0.278;2023-04-01T07:00:51;99922.42;;;22.46;42.47
77975;BME280;67164;51.202;0.278;2023-04-01T07:03:19;99926.33;;;22.43;42.06
77975;BME280;67164;51.202;0.278;2023-04-01T07:05:40;99930.96;;;22.46;41.99
77975;BME280;67164;51.202;0.278;2023-04-01T07:08:09;99931.52;;;22.61;41.71
77975;BME280;67164;51.202;0.278;2023-04-01T07:10:35;99934.41;;;22.78;41.40
77975;BME280;67164;51.202;0.278;2023-04-01T07:12:58;99937.61;;;22.63;41.15
77975;BME280;67164;51.202;0.278;2023-04-01T07:15:26;99937.91;;;22.62;41.06
77975;BME280;67164;51.202;0.278;2023-04-01T07:17:53;99940.93;;;22.95;40.90
77975;BME280;67164;51.202;0.278;2023-04-01T07:20:19;99938.94;;;23.02;40.75
77975;BME280;67164;51.202;0.278;2023-04-01T07:22:43;99941.08;;;23.07;40.56
77975;BME280;67164;51.202;0.278;2023-04-01T07:25:11;99946.13;;;23.08;40.51
77975;BME280;67164;51.202;0.278;2023-04-01T07:27:31;99945.79;;;23.18;40.34
77975;BME280;67164;51.202;0.278;2023-04-01T07:29:57;99950.09;;;22.95;40.22
77975;BME280;67164;51.202;0.278;2023-04-01T07:32:32;99952.70;;;23.25;40.12
77975;BME280;67164;51.202;0.278;2023-04-01T07:34:58;99956.33;;;23.10;40.15
77975;BME280;67164;51.202;0.278;2023-04-01T07:37:18;99954.14;;;23.10;40.08
77975;BME280;67164;51.202;0.278;2023-04-01T07:39:49;99960.14;;;22.91;40.30
77975;BME280;67164;51.202;0.278;2023-04-01T07:42:11;99967.29;;;23.00;40.26
77975;BME280;67164;51.202;0.278;2023-04-01T07:44:38;99974.78;;;22.82;40.44
77975;BME280;67164;51.202;0.278;2023-04-01T07:47:20;99975.51;;;22.56;40.60
77975;BME280;67164;51.202;0.278;2023-04-01T07:49:34;99977.73;;;22.96;40.78
77975;BME280;67164;51.202;0.278;2023-04-01T07:51:58;99977.50;;;22.91;40.88
77975;BME280;67164;51.202;0.278;2023-04-01T07:54:19;99982.74;;;23.08;40.50
77975;BME280;67164;51.202;0.278;2023-04-01T07:56:45;99991.01;;;22.65;40.34
77975;BME280;67164;51.202;0.278;2023-04-01T07:59:14;99995.65;;;23.20;40.21
77975;BME280;67164;51.202;0.278;2023-04-01T08:01:39;99995.10;;;23.20;40.16
77975;BME280;67164;51.202;0.278;2023-04-01T08:04:12;100000.98;;;23.44;40.08
77975;BME280;67164;51.202;0.278;2023-04-01T08:06:28;100000.89;;;23.21;40.00
77975;BME280;67164;51.202;0.278;2023-04-01T08:08:58;100006.76;;;23.21;39.94
77975;BME280;67164;51.202;0.278;2023-04-01T08:11:27;100008.86;;;23.19;39.91
77975;BME280;67164;51.202;0.278;2023-04-01T08:13:48;100007.57;;;23.20;39.84
77975;BME280;67164;51.202;0.278;2023-04-01T08:16:14;100012.15;;;23.15;39.85
77975;BME280;67164;51.202;0.278;2023-04-01T08:18:40;100019.86;;;23.37;39.87
77975;BME280;67164;51.202;0.278;2023-04-01T08:21:01;100022.04;;;23.10;39.81
77975;BME280;67164;51.202;0.278;2023-04-01T08:23:27;100026.76;;;23.07;39.75
77975;BME280;67164;51.202;0.278;2023-04-01T08:25:54;100030.70;;;23.03;39.83
77975;BME280;67164;51.202;0.278;2023-04-01T08:28:21;100036.52;;;23.03;39.73
77975;BME280;67164;51.202;0.278;2023-04-01T08:30:45;100038.77;;;23.01;39.69
77975;BME280;67164;51.202;0.278;2023-04-01T08:33:12;100039.53;;;23.23;39.67
77975;BME280;67164;51.202;0.278;2023-04-01T08:35:40;100042.43;;;22.96;39.63
77975;BME280;67164;51.202;0.278;2023-04-01T08:38:05;100050.24;;;22.67;39.94
77975;BME280;67164;51.202;0.278;2023-04-01T08:40:41;100054.51;;;22.84;39.77
77975;BME280;67164;51.202;0.278;2023-04-01T08:43:02;100057.23;;;23.09;39.67
77975;BME280;67164;51.202;0.278;2023-04-01T08:47:52;100061.61;;;22.81;39.50
77975;BME280;67164;51.202;0.278;2023-04-01T08:52:36;100065.68;;;23.11;39.51
77975;BME280;67164;51.202;0.278;2023-04-01T08:55:17;100066.36;;;22.59;39.61
77975;BME280;67164;51.202;0.278;2023-04-01T08:57:37;100073.65;;;22.60;39.80
77975;BME280;67164;51.202;0.278;2023-04-01T09:00:00;100076.15;;;22.78;39.85
77975;BME280;67164;51.202;0.278;2023-04-01T09:02:33;100078.72;;;22.75;39.98
77975;BME280;67164;51.202;0.278;2023-04-01T09:07:21;100082.77;;;22.82;40.01
77975;BME280;67164;51.202;0.278;2023-04-01T09:09:49;100087.12;;;22.84;40.26
77975;BME280;67164;51.202;0.278;2023-04-01T09:12:18;100094.17;;;23.12;40.23
77975;BME280;67164;51.202;0.278;2023-04-01T09:14:42;100094.02;;;22.80;40.15
77975;BME280;67164;51.202;0.278;2023-04-01T09:19:27;100090.76;;;22.39;41.01
77975;BME280;67164;51.202;0.278;2023-04-01T09:21:56;100095.36;;;22.08;41.59
77975;BME280;67164;51.202;0.278;2023-04-01T09:24:26;100100.04;;;21.80;42.04
77975;BME280;67164;51.202;0.278;2023-04-01T09:26:49;100097.68;;;21.87;42.40
77975;BME280;67164;51.202;0.278;2023-04-01T09:29:11;100099.89;;;21.73;42.69
77975;BME280;67164;51.202;0.278;2023-04-01T09:31:50;100102.15;;;21.54;42.70
77975;BME280;67164;51.202;0.278;2023-04-01T09:36:33;100110.14;;;21.58;43.21
77975;BME280;67164;51.202;0.278;2023-04-01T09:38:56;100107.74;;;21.57;42.92
77975;BME280;67164;51.202;0.278;2023-04-01T09:41:17;100109.81;;;21.82;42.92
77975;BME280;67164;51.202;0.278;2023-04-01T09:43:49;100111.12;;;21.73;42.73
77975;BME280;67164;51.202;0.278;2023-04-01T09:46:15;100118.81;;;21.94;42.49
77975;BME280;67164;51.202;0.278;2023-04-01T09:48:40;100121.99;;;21.62;43.03
77975;BME280;67164;51.202;0.278;2023-04-01T09:51:02;100122.57;;;21.81;43.10
77975;BME280;67164;51.202;0.278;2023-04-01T09:53:31;100124.63;;;21.60;43.11
77975;BME280;67164;51.202;0.278;2023-04-01T09:58:32;100135.10;;;21.59;43.20
77975;BME280;67164;51.202;0.278;2023-04-01T10:00:51;100133.52;;;21.53;43.34
77975;BME280;67164;51.202;0.278;2023-04-01T10:03:24;100136.01;;;21.54;43.40
77975;BME280;67164;51.202;0.278;2023-04-01T10:08:11;100141.91;;;21.54;43.50
77975;BME280;67164;51.202;0.278;2023-04-01T10:10:37;100145.08;;;21.56;43.46
77975;BME280;67164;51.202;0.278;2023-04-01T10:13:01;100149.33;;;21.58;43.46
77975;BME280;67164;51.202;0.278;2023-04-01T10:15:27;100149.02;;;22.13;43.04
77975;BME280;67164;51.202;0.278;2023-04-01T10:17:59;100155.53;;;22.16;42.95
77975;BME280;67164;51.202;0.278;2023-04-01T10:20:16;100162.30;;;21.88;43.00
77975;BME280;67164;51.202;0.278;2023-04-01T10:25:16;100169.53;;;21.98;42.99
77975;BME280;67164;51.202;0.278;2023-04-01T10:27:32;100168.35;;;22.09;42.84
77975;BME280;67164;51.202;0.278;2023-04-01T10:30:02;100174.80;;;22.38;42.43
77975;BME280;67164;51.202;0.278;2023-04-01T10:32:34;100176.04;;;22.54;41.83
77975;BME280;67164;51.202;0.278;2023-04-01T10:34:56;100176.83;;;22.69;41.71
77975;BME280;67164;51.202;0.278;2023-04-01T10:37:15;100183.14;;;22.73;41.59
77975;BME280;67164;51.202;0.278;2023-04-01T10:42:12;100185.49;;;22.84;41.38
77975;BME280;67164;51.202;0.278;2023-04-01T10:47:13;100190.16;;;22.57;40.97
77975;BME280;67164;51.202;0.278;2023-04-01T10:49:28;100195.54;;;23.07;41.05
77975;BME280;67164;51.202;0.278;2023-04-01T10:54:17;100195.65;;;23.21;41.01
77975;BME280;67164;51.202;0.278;2023-04-01T10:56:36;100197.60;;;23.09;40.88
77975;BME280;67164;51.202;0.278;2023-04-01T11:06:34;100203.03;;;23.28;40.97
77975;BME280;67164;51.202;0.278;2023-04-01T11:13:40;100211.72;;;23.21;41.17
77975;BME280;67164;51.202;0.278;2023-04-01T11:16:06;100214.49;;;23.15;41.61
77975;BME280;67164;51.202;0.278;2023-04-01T11:23:28;100221.34;;;22.82;42.33
77975;BME280;67164;51.202;0.278;2023-04-01T11:25:48;100223.44;;;22.99;42.09
77975;BME280;67164;51.202;0.278;2023-04-01T11:30:49;100227.99;;;23.16;41.76
77975;BME280;67164;51.202;0.278;2023-04-01T11:33:02;100235.21;;;22.98;42.12
77975;BME280;67164;51.202;0.278;2023-04-01T11:35:34;100235.92;;;22.85;42.44
77975;BME280;67164;51.202;0.278;2023-04-01T11:37:53;100238.53;;;22.84;42.50
77975;BME280;67164;51.202;0.278;2023-04-01T11:40:20;100241.67;;;22.80;42.56
77975;BME280;67164;51.202;0.278;2023-04-01T11:42:43;100245.04;;;22.79;42.66
77975;BME280;67164;51.202;0.278;2023-04-01T11:45:14;100247.26;;;22.76;42.74
77975;BME280;67164;51.202;0.278;2023-04-01T11:47:40;100252.41;;;22.81;42.69
77975;BME280;67164;51.202;0.278;2023-04-01T11:50:08;100255.99;;;22.79;42.80
77975;BME280;67164;51.202;0.278;2023-04-01T11:52:33;100261.66;;;22.80;43.09
77975;BME280;67164;51.202;0.278;2023-04-01T11:55:01;100263.95;;;22.86;42.94
77975;BME280;67164;51.202;0.278;2023-04-01T11:57:25;100273.08;;;22.85;42.98
77975;BME280;67164;51.202;0.278;2023-04-01T11:59:52;100274.42;;;22.93;42.74
77975;BME280;67164;51.202;0.278;2023-04-01T12:02:09;100281.23;;;22.80;42.91
77975;BME280;67164;51.202;0.278;2023-04-01T12:04:40;100284.93;;;22.81;42.96
77975;BME280;67164;51.202;0.278;2023-04-01T12:06:57;100285.63;;;22.79;42.91
77975;BME280;67164;51.202;0.278;2023-04-01T12:09:21;100290.24;;;23.21;42.67
77975;BME280;67164;51.202;0.278;2023-04-01T12:11:45;100290.77;;;22.37;43.05
77975;BME280;67164;51.202;0.278;2023-04-01T12:14:15;100303.47;;;22.92;42.89
77975;BME280;67164;51.202;0.278;2023-04-01T12:16:44;100308.02;;;23.00;42.75
77975;BME280;67164;51.202;0.278;2023-04-01T12:19:00;100313.46;;;22.86;42.80
77975;BME280;67164;51.202;0.278;2023-04-01T12:21:26;100316.76;;;23.01;42.49
77975;BME280;67164;51.202;0.278;2023-04-01T12:28:49;100326.36;;;23.04;42.40
77975;BME280;67164;51.202;0.278;2023-04-01T12:31:16;100327.72;;;23.09;42.23
77975;BME280;67164;51.202;0.278;2023-04-01T12:33:43;100332.83;;;23.21;42.09
77975;BME280;67164;51.202;0.278;2023-04-01T12:36:03;100336.01;;;23.01;41.83
77975;BME280;67164;51.202;0.278;2023-04-01T12:38:28;100339.19;;;23.19;41.74
77975;BME280;67164;51.202;0.278;2023-04-01T12:40:56;100338.49;;;23.23;41.55
77975;BME280;67164;51.202;0.278;2023-04-01T12:43:34;100342.87;;;23.18;41.45
77975;BME280;67164;51.202;0.278;2023-04-01T12:45:40;100348.53;;;23.17;41.38
77975;BME280;67164;51.202;0.278;2023-04-01T12:48:12;100351.97;;;23.07;41.37
77975;BME280;67164;51.202;0.278;2023-04-01T12:50:39;100356.43;;;23.30;41.33
77975;BME280;67164;51.202;0.278;2023-04-01T12:53:01;100359.61;;;23.32;41.21
77975;BME280;67164;51.202;0.278;2023-04-01T12:55:35;100365.46;;;23.29;41.13
77975;BME280;67164;51.202;0.278;2023-04-01T12:58:03;100371.34;;;23.01;41.13
77975;BME280;67164;51.202;0.278;2023-04-01T13:00:23;100371.82;;;23.23;41.14
77975;BME280;67164;51.202;0.278;2023-04-01T13:02:46;100371.49;;;23.09;41.12
77975;BME280;67164;51.202;0.278;2023-04-01T13:07:35;100367.85;;;22.86;41.50
77975;BME280;67164;51.202;0.278;2023-04-01T13:10:01;100372.57;;;23.08;41.14
77975;BME280;67164;51.202;0.278;2023-04-01T13:12:32;100383.09;;;23.04;41.12
77975;BME280;67164;51.202;0.278;2023-04-01T13:15:03;100381.86;;;23.14;41.02
77975;BME280;67164;51.202;0.278;2023-04-01T13:17:15;100385.49;;;23.09;41.14
77975;BME280;67164;51.202;0.278;2023-04-01T13:19:39;100386.43;;;22.97;41.30
77975;BME280;67164;51.202;0.278;2023-04-01T13:22:06;100386.84;;;23.06;41.22
77975;BME280;67164;51.202;0.278;2023-04-01T13:24:38;100391.43;;;23.10;41.16
77975;BME280;67164;51.202;0.278;2023-04-01T13:26:57;100392.16;;;23.10;41.12
77975;BME280;67164;51.202;0.278;2023-04-01T13:29:21;100395.46;;;23.36;41.03
77975;BME280;67164;51.202;0.278;2023-04-01T13:31:55;100401.02;;;22.65;41.01
77975;BME280;67164;51.202;0.278;2023-04-01T13:34:20;100401.02;;;23.10;40.98
77975;BME280;67164;51.202;0.278;2023-04-01T13:36:39;100404.34;;;22.88;40.95
77975;BME280;67164;51.202;0.278;2023-04-01T13:39:13;100409.00;;;23.00;41.28
77975;BME280;67164;51.202;0.278;2023-04-01T13:41:35;100410.36;;;22.85;41.23
77975;BME280;67164;51.202;0.278;2023-04-01T13:43:52;100417.79;;;23.13;41.27